createdAt,value
2022-10-17T00:08:33.778Z,22.3
2022-10-17T00:18:41.232Z,22.3
2022-10-17T00:38:49.741Z,22.3
2022-10-17T00:48:57.289Z,22.2
2022-10-17T01:09:11.637Z,22
2022-10-17T01:19:19.171Z,22
2022-10-17T01:29:26.014Z,22
2022-10-17T01:39:35.569Z,22.1
2022-10-17T01:49:39.003Z,21.9
2022-10-17T01:59:46.515Z,21.9
2022-10-17T02:09:54.346Z,21.8
2022-10-17T02:20:03.324Z,22
2022-10-17T02:30:12.473Z,21.8
2022-10-17T02:40:21.476Z,21.7
2022-10-17T02:50:30.382Z,21.8
2022-10-17T03:00:39.324Z,21.8
2022-10-17T03:10:48.090Z,21.7
2022-10-17T03:20:57.110Z,21.6
2022-10-17T03:31:06.010Z,21.7
2022-10-17T03:41:14.881Z,21.6
2022-10-17T03:51:23.769Z,21.5
2022-10-17T04:01:32.722Z,21.5
2022-10-17T04:11:41.582Z,21.4
2022-10-17T04:21:50.439Z,21.4
2022-10-17T04:31:59.291Z,21.4
2022-10-17T04:42:08.182Z,21.4
2022-10-17T04:52:17.078Z,21.4
2022-10-17T05:02:26.069Z,21.4
2022-10-17T05:12:35.635Z,21.3
2022-10-17T05:22:39.648Z,21.3
2022-10-17T05:32:47.711Z,21.1
2022-10-17T05:42:51.134Z,21.1
2022-10-17T05:52:52.144Z,21.4
2022-10-17T06:03:01.312Z,21.3
2022-10-17T06:13:10.389Z,21.2
2022-10-17T06:23:19.319Z,21.3
2022-10-17T06:33:19.389Z,21.5
2022-10-17T06:43:28.676Z,21.6
2022-10-17T06:53:38.121Z,21.8
2022-10-17T07:03:47.237Z,21.9
2022-10-17T07:13:56.389Z,22
2022-10-17T07:24:05.671Z,22.1
2022-10-17T07:34:07.228Z,22
2022-10-17T07:44:10.844Z,22.1
2022-10-17T07:54:20.050Z,22.2
2022-10-17T08:04:29.074Z,22.5
2022-10-17T08:14:38.278Z,22.6
2022-10-17T08:24:39.699Z,22.7
2022-10-17T08:34:38.694Z,22.7
2022-10-17T08:44:47.836Z,22.6
2022-10-17T08:54:57.728Z,22.6
2022-10-17T09:05:07.095Z,22.7
2022-10-17T09:15:15.524Z,23.1
2022-10-17T09:25:24.607Z,23.6
2022-10-17T09:35:33.631Z,23.8
2022-10-17T09:45:36.823Z,23.9
2022-10-17T09:55:37.341Z,24.1
2022-10-17T10:05:37.431Z,24.4
2022-10-17T10:15:39.371Z,24.6
2022-10-17T10:25:49.415Z,25.1
2022-10-17T10:35:59.395Z,25.8
2022-10-17T10:45:59.487Z,26.1
2022-10-17T10:56:08.742Z,25.9
2022-10-17T11:46:27.105Z,27
2022-10-17T11:56:30.794Z,27.3
2022-10-17T12:06:30.904Z,27.2
2022-10-17T12:16:35.411Z,27.4
2022-10-17T12:26:37.199Z,26.9
2022-10-17T12:36:41.426Z,27
2022-10-17T12:46:48.616Z,26.5
2022-10-17T13:07:01.783Z,26.2
2022-10-17T13:16:59.905Z,25.8
2022-10-17T13:27:08.780Z,25.7
2022-10-17T13:37:17.822Z,25.8
2022-10-17T13:47:26.840Z,25.9
2022-10-17T13:57:36.015Z,25.8
2022-10-17T14:07:51.974Z,25.9
2022-10-17T14:17:43.782Z,26
2022-10-17T14:27:52.669Z,26.1
2022-10-17T14:38:01.668Z,26.1
2022-10-17T14:48:10.664Z,26.2
2022-10-17T14:58:19.739Z,26.2
2022-10-17T15:08:19.916Z,25.9
2022-10-17T15:18:29.063Z,25.9
2022-10-17T15:28:29.106Z,25.9
2022-10-17T15:39:34.092Z,25.9
2022-10-17T15:49:33.963Z,25.8
2022-10-17T15:59:42.947Z,25.4
2022-10-17T16:09:51.847Z,25.4
2022-10-17T16:20:00.894Z,25.2
2022-10-17T16:30:09.876Z,25
2022-10-17T16:40:18.183Z,25
2022-10-17T16:50:27.148Z,25
2022-10-17T17:00:36.126Z,24.8
2022-10-17T17:10:45.027Z,24.6
2022-10-17T17:20:54.265Z,24.7
2022-10-17T17:31:04.201Z,24.9
2022-10-17T17:41:13.083Z,24.5
2022-10-17T17:51:25.456Z,24.5
2022-10-17T18:01:31.088Z,24.5
2022-10-17T18:11:41.178Z,24.4
2022-10-17T18:21:49.081Z,24.4
2022-10-17T18:32:01.218Z,24.5
2022-10-17T18:42:10.213Z,24.4
2022-10-17T18:52:18.768Z,24.1
2022-10-17T19:02:24.422Z,24.2
2022-10-17T19:12:29.150Z,24.2
2022-10-17T19:22:34.509Z,24.4
2022-10-17T19:32:35.182Z,24.4
2022-10-17T19:42:34.603Z,24.6
2022-10-17T19:52:35.437Z,24.8
2022-10-17T20:02:45.178Z,24.8
2022-10-17T20:12:45.939Z,24.7
2022-10-17T20:22:54.974Z,24.6
2022-10-17T20:33:04.382Z,24.5
2022-10-17T20:43:13.518Z,24.6
2022-10-17T20:53:31.738Z,24.7
2022-10-17T21:03:22.436Z,24.6
2022-10-17T21:13:21.464Z,24.4
2022-10-17T21:23:31.432Z,24.2
2022-10-17T21:33:31.483Z,23.9
2022-10-17T21:43:40.580Z,23.8
2022-10-17T21:53:49.726Z,23.8
2022-10-17T22:03:58.403Z,23.7
2022-10-17T22:14:07.535Z,23.5
2022-10-17T22:24:16.749Z,23.4
2022-10-17T22:34:17.593Z,23.4
2022-10-17T22:44:17.607Z,23.3
2022-10-17T22:54:17.653Z,23
2022-10-17T23:04:27.090Z,22.9
2022-10-17T23:14:35.451Z,22.8
2022-10-17T23:24:43.568Z,22.8
2022-10-17T23:34:51.722Z,22.6
2022-10-17T23:44:59.844Z,22.5
2022-10-17T23:55:07.876Z,22.5
